Time;durP1;ratioP1;P1;durP2;ratioP2;P2;SDS_P1;SDS_P2;PMS_P1;PMS_P2;Temp;Humidity;BMP_temperature;BMP_pressure;BME280_temperature;BME280_humidity;BME280_pressure;Samples;Min_cycle;Max_cycle;Signal;HPM_P1;HPM_P2
2022/06/11 00:01:43;;;;;;;5.65;2.92;;;;;;;12.10;84.93;97944.38;5065077;28;20650;-63
2022/06/11 00:04:17;;;;;;;6.47;2.65;;;;;;;12.19;84.80;97952.94;5064622;28;20526;-63
2022/06/11 00:06:47;;;;;;;5.32;2.80;;;;;;;12.02;84.73;97950.19;5064893;28;20120;-63
2022/06/11 00:09:15;;;;;;;7.53;3.25;;;;;;;11.89;85.82;97953.22;5065695;28;20055;-62
2022/06/11 00:11:42;;;;;;;6.45;3.47;;;;;;;12.02;85.76;97960.22;5065467;28;20664;-62
2022/06/11 00:14:09;;;;;;;4.82;2.70;;;;;;;12.03;85.73;97956.44;5064637;28;20047;-62
2022/06/11 00:16:37;;;;;;;8.98;3.28;;;;;;;12.13;85.17;97956.66;5065522;28;20047;-63
2022/06/11 00:19:06;;;;;;;5.25;2.67;;;;;;;12.18;85.24;97950.47;5065069;28;20037;-63
2022/06/11 00:21:36;;;;;;;4.47;2.63;;;;;;;12.19;84.91;97943.97;5065270;28;20060;-63
2022/06/11 00:24:04;;;;;;;5.13;3.13;;;;;;;12.10;84.98;97952.50;5065671;28;20068;-63
2022/06/11 00:26:30;;;;;;;8.38;3.15;;;;;;;12.09;84.88;97945.44;5064960;28;20453;-64
2022/06/11 00:28:57;;;;;;;5.63;3.17;;;;;;;11.95;85.91;97957.69;5065874;28;20041;-66
2022/06/11 00:31:24;;;;;;;6.00;2.78;;;;;;;11.98;85.44;97949.06;5065158;28;20458;-64
2022/06/11 00:33:51;;;;;;;5.05;2.58;;;;;;;11.79;86.29;97954.72;5064900;28;20102;-64
2022/06/11 00:36:18;;;;;;;4.80;2.95;;;;;;;11.78;86.56;97949.53;5065451;28;20098;-64
2022/06/11 00:38:46;;;;;;;6.63;3.00;;;;;;;11.78;86.26;97946.81;5064933;28;20515;-63
2022/06/11 00:41:15;;;;;;;5.78;3.05;;;;;;;11.86;86.42;97956.44;5063464;28;20065;-64
2022/06/11 00:43:42;;;;;;;5.97;2.90;;;;;;;11.92;85.86;97956.28;5064874;28;20041;-63
2022/06/11 00:46:34;;;;;;;7.93;3.33;;;;;;;11.94;85.68;97961.47;5064313;28;20033;-65
2022/06/11 00:49:02;;;;;;;5.90;2.95;;;;;;;11.79;86.09;97953.91;5045424;28;20049;-62
2022/06/11 00:51:31;;;;;;;5.80;2.63;;;;;;;11.74;86.59;97948.38;5043918;28;20048;-63
2022/06/11 00:54:04;;;;;;;5.72;2.90;;;;;;;11.75;86.90;97950.03;5051049;28;20040;-64
2022/06/11 00:56:37;;;;;;;7.05;3.00;;;;;;;11.79;86.55;97951.19;5044825;28;20071;-64
2022/06/11 00:59:09;;;;;;;6.70;3.15;;;;;;;11.77;86.33;97950.59;5045262;28;20496;-64
2022/06/11 01:01:35;;;;;;;7.60;2.95;;;;;;;11.80;86.40;97945.50;5047961;28;20040;-64
2022/06/11 01:04:23;;;;;;;7.32;2.80;;;;;;;11.84;86.05;97943.94;5048518;28;20114;-64
2022/06/11 01:06:57;;;;;;;7.40;3.17;;;;;;;11.87;85.50;97949.94;5048975;28;20051;-64
2022/06/11 01:09:42;;;;;;;5.43;3.05;;;;;;;11.84;85.73;97943.94;5061443;28;20512;-64
2022/06/11 01:12:29;;;;;;;5.95;3.33;;;;;;;11.71;86.17;97945.09;5068850;28;20408;-64
2022/06/11 01:15:18;;;;;;;6.05;3.35;;;;;;;11.62;87.08;97940.31;5068548;28;20037;-64
2022/06/11 01:18:01;;;;;;;8.15;3.28;;;;;;;11.56;87.12;97944.81;5068220;28;20040;-64
2022/06/11 01:20:31;;;;;;;7.93;3.15;;;;;;;11.52;87.57;97941.78;5068777;28;20525;-64
2022/06/11 01:23:10;;;;;;;7.00;2.92;;;;;;;11.50;87.41;97938.47;5068170;28;20045;-63
2022/06/11 01:26:23;;;;;;;6.63;2.97;;;;;;;11.45;87.68;97933.81;5068338;28;20127;-63
2022/06/11 01:29:22;;;;;;;7.43;3.47;;;;;;;11.39;87.91;97934.75;5049757;28;20037;-64
2022/06/11 01:32:14;;;;;;;6.68;3.15;;;;;;;11.35;88.05;97938.22;5068423;28;20047;-63
2022/06/11 01:34:50;;;;;;;6.53;3.33;;;;;;;11.30;88.28;97937.06;5068098;28;20097;-64
2022/06/11 01:37:33;;;;;;;7.05;3.58;;;;;;;11.28;88.41;97931.03;5068032;28;20047;-64
2022/06/11 01:40:12;;;;;;;5.38;3.13;;;;;;;11.27;88.39;97932.09;5063677;28;20036;-63
2022/06/11 01:42:46;;;;;;;6.68;3.60;;;;;;;11.26;88.46;97940.47;5048204;28;20060;-63
2022/06/11 01:45:18;;;;;;;5.35;3.63;;;;;;;11.27;88.50;97934.81;5059359;28;20040;-63
2022/06/11 01:47:47;;;;;;;8.15;3.42;;;;;;;11.29;88.54;97934.59;5067563;28;20123;-62
2022/06/11 01:50:22;;;;;;;5.60;3.88;;;;;;;11.26;88.71;97933.19;5067867;28;20052;-63
2022/06/11 01:53:23;;;;;;;7.35;3.25;;;;;;;11.27;88.70;97929.41;5067352;28;20443;-63
2022/06/11 01:56:16;;;;;;;4.77;3.43;;;;;;;11.34;88.41;97931.97;5062605;28;20450;-63
2022/06/11 01:59:01;;;;;;;8.85;3.60;;;;;;;11.36;88.12;97926.28;5067454;28;20051;-62
2022/06/11 02:01:46;;;;;;;8.20;3.67;;;;;;;11.33;88.36;97927.59;5068033;28;20090;-62
2022/06/11 02:04:37;;;;;;;6.72;4.78;;;;;;;11.32;88.51;97926.78;5067421;28;20049;-63
2022/06/11 02:07:30;;;;;;;7.03;3.92;;;;;;;11.30;88.36;97923.50;5067827;28;20524;-62
2022/06/11 02:10:17;;;;;;;5.10;3.28;;;;;;;11.34;88.13;97923.81;5066750;28;20044;-62
2022/06/11 02:12:49;;;;;;;5.15;3.25;;;;;;;11.36;88.11;97921.72;5067788;28;20458;-63
2022/06/11 02:15:31;;;;;;;4.93;3.05;;;;;;;11.31;88.16;97925.13;5067248;28;20044;-63
2022/06/11 02:18:03;;;;;;;6.10;3.85;;;;;;;11.27;88.62;97926.69;5067055;28;20040;-63
2022/06/11 02:20:48;;;;;;;6.80;3.20;;;;;;;11.23;88.48;97928.22;5067873;28;20040;-62
2022/06/11 02:23:36;;;;;;;6.97;3.55;;;;;;;11.28;88.31;97928.31;5066941;28;20118;-63
2022/06/11 02:26:09;;;;;;;5.72;3.63;;;;;;;11.25;88.28;97930.72;5067066;28;20416;-62
2022/06/11 02:28:39;;;;;;;11.05;4.45;;;;;;;11.24;88.56;97927.16;5066918;28;20052;-63
2022/06/11 02:31:08;;;;;;;9.50;3.88;;;;;;;11.26;87.96;97927.75;5067344;28;20063;-63
2022/06/11 02:33:36;;;;;;;5.25;3.25;;;;;;;11.30;87.85;97928.91;5066953;28;20043;-62
2022/06/11 02:36:12;;;;;;;8.45;3.85;;;;;;;11.29;87.89;97935.41;5066555;28;20040;-63
2022/06/11 02:38:38;;;;;;;8.60;3.63;;;;;;;11.31;87.61;97925.13;5066074;28;20048;-63
2022/06/11 02:41:10;;;;;;;8.73;3.47;;;;;;;11.36;87.64;97937.97;5065059;28;20089;-62
2022/06/11 02:43:37;;;;;;;5.75;3.55;;;;;;;11.33;87.60;97930.31;5066281;28;20056;-63
2022/06/11 02:48:52;;;;;;;5.68;3.10;;;;;;;11.47;86.91;97930.00;5066995;28;20079;-63
2022/06/11 02:51:21;;;;;;;7.35;3.78;;;;;;;11.55;86.70;97929.63;5066679;28;20488;-63
2022/06/11 02:53:48;;;;;;;9.70;3.38;;;;;;;11.61;86.37;97936.75;5066106;28;20044;-63
2022/06/11 02:56:15;;;;;;;5.72;3.40;;;;;;;11.63;86.08;97931.09;5066493;28;20048;-64
2022/06/11 02:58:42;;;;;;;9.30;2.88;;;;;;;11.63;86.08;97929.22;5066054;28;20041;-64
2022/06/11 03:01:16;;;;;;;7.95;2.90;;;;;;;11.52;86.29;97940.94;5066302;28;20059;-63
2022/06/11 03:03:43;;;;;;;5.88;3.63;;;;;;;11.45;86.82;97944.66;5066366;28;20052;-63
2022/06/11 03:06:11;;;;;;;6.90;3.35;;;;;;;11.41;86.64;97935.34;5065865;28;20040;-62
2022/06/11 03:08:37;;;;;;;6.18;3.40;;;;;;;11.37;86.98;97941.50;5066350;28;20067;-62
2022/06/11 03:11:04;;;;;;;8.48;3.75;;;;;;;11.29;87.52;97942.72;5065482;28;20048;-62
2022/06/11 03:13:31;;;;;;;5.25;3.33;;;;;;;11.27;87.74;97945.66;5064492;28;20041;-63
2022/06/11 03:15:57;;;;;;;6.50;2.92;;;;;;;11.32;87.61;97945.75;5063999;28;20486;-62
2022/06/11 03:18:25;;;;;;;5.07;2.85;;;;;;;11.50;86.80;97943.09;5063017;28;20040;-63
2022/06/11 03:20:53;;;;;;;6.18;3.53;;;;;;;11.61;86.06;97941.38;5067139;28;20503;-63
2022/06/11 03:23:20;;;;;;;6.45;3.03;;;;;;;11.71;85.33;97946.97;5077958;28;20616;-62
2022/06/11 03:25:47;;;;;;;9.27;3.50;;;;;;;11.68;85.36;97947.44;5076859;28;20114;-62
2022/06/11 03:28:18;;;;;;;8.15;3.45;;;;;;;11.65;85.50;97954.19;5071522;28;20044;-62
2022/06/11 03:30:45;;;;;;;8.13;3.35;;;;;;;11.62;85.52;97954.69;5073394;28;20040;-62
2022/06/11 03:33:14;;;;;;;7.53;3.22;;;;;;;11.61;85.65;97952.22;5080117;28;20060;-63
2022/06/11 03:35:43;;;;;;;7.63;3.38;;;;;;;11.69;84.69;97954.53;5063519;28;20040;-64
2022/06/11 03:38:10;;;;;;;6.93;3.42;;;;;;;11.75;84.54;97952.75;5064247;28;20701;-63
2022/06/11 03:40:38;;;;;;;4.93;2.80;;;;;;;11.77;84.32;97954.16;5063720;28;20056;-62
2022/06/11 03:43:05;;;;;;;6.25;3.40;;;;;;;11.86;84.10;97959.16;5077365;28;20052;-63
2022/06/11 03:45:33;;;;;;;7.85;2.97;;;;;;;12.00;83.44;97954.22;5074416;28;20047;-63
2022/06/11 03:48:00;;;;;;;5.47;2.65;;;;;;;12.04;82.97;97947.22;5069351;28;20059;-64
2022/06/11 03:50:32;;;;;;;6.65;3.40;;;;;;;12.00;83.19;97952.34;5063898;28;20055;-64
2022/06/11 03:52:59;;;;;;;4.65;2.60;;;;;;;11.83;83.65;97955.84;5063136;28;20048;-63
2022/06/11 03:55:27;;;;;;;7.13;3.03;;;;;;;11.79;83.98;97960.13;5058055;28;20526;-64
2022/06/11 03:57:54;;;;;;;5.40;2.88;;;;;;;11.85;83.63;97963.75;5063845;28;20056;-62
2022/06/11 04:03:12;;;;;;;5.28;2.40;;;;;;;12.09;82.51;97961.72;5064499;28;20113;-63
2022/06/11 04:05:41;;;;;;;6.55;3.22;;;;;;;12.09;82.35;97975.31;5065756;28;20044;-62
2022/06/11 04:08:09;;;;;;;7.47;2.83;;;;;;;12.17;82.05;97976.78;5080903;28;20044;-62
2022/06/11 04:10:37;;;;;;;8.70;2.65;;;;;;;12.19;82.13;97969.22;5076644;28;20097;-63
2022/06/11 04:13:05;;;;;;;5.97;2.60;;;;;;;12.23;82.13;97970.38;5063290;28;20069;-63
2022/06/11 04:15:32;;;;;;;6.60;2.70;;;;;;;12.20;82.09;97972.78;5061591;28;20056;-62
2022/06/11 04:18:00;;;;;;;6.60;3.17;;;;;;;12.18;82.27;97969.47;5063280;28;20048;-62
2022/06/11 04:20:26;;;;;;;6.38;2.78;;;;;;;12.17;82.67;97971.34;5063377;28;20048;-63
2022/06/11 04:22:53;;;;;;;5.45;3.00;;;;;;;12.21;82.42;97974.41;5062510;28;20048;-63
2022/06/11 04:25:21;;;;;;;8.68;3.30;;;;;;;12.30;82.52;97980.22;5063469;28;20041;-63
2022/06/11 04:27:53;;;;;;;7.68;3.53;;;;;;;12.52;81.69;97968.59;5063487;28;20048;-62
2022/06/11 04:30:21;;;;;;;;;;;;;;;12.76;80.51;97982.81;5077012;28;20040;-62
2022/06/11 04:32:48;;;;;;;5.38;2.60;;;;;;;12.78;80.07;97985.28;5076206;28;20509;-62
2022/06/11 04:35:15;;;;;;;6.35;2.90;;;;;;;12.76;80.49;97982.81;5064208;28;20114;-62
2022/06/11 04:37:44;;;;;;;4.22;2.90;;;;;;;12.76;80.80;97980.09;5065776;28;20571;-62
2022/06/11 04:40:13;;;;;;;6.88;3.00;;;;;;;12.86;80.22;97990.25;5065220;28;20039;-61
2022/06/11 04:42:39;;;;;;;4.28;2.50;;;;;;;12.79;80.64;97989.63;5059870;28;20045;-62
2022/06/11 04:45:06;;;;;;;3.88;2.47;;;;;;;12.90;80.39;97996.81;5067446;28;20418;-61
2022/06/11 04:47:33;;;;;;;7.30;2.90;;;;;;;12.92;80.65;97996.56;5067383;28;20044;-62
2022/06/11 04:50:05;;;;;;;4.85;2.58;;;;;;;13.05;79.96;97993.47;5067924;28;20048;-61
2022/06/11 04:52:32;;;;;;;5.75;2.70;;;;;;;13.18;79.70;97999.63;5067278;28;20094;-63
2022/06/11 04:54:59;;;;;;;4.43;2.30;;;;;;;13.25;79.41;97994.81;5067271;28;20052;-62
2022/06/11 04:57:25;;;;;;;5.93;2.63;;;;;;;13.31;79.11;98001.97;5080326;28;20082;-62
2022/06/11 04:59:52;;;;;;;5.05;2.50;;;;;;;13.34;78.84;97992.47;5079099;28;20661;-62
2022/06/11 05:02:20;;;;;;;5.65;2.70;;;;;;;13.33;79.81;97999.81;5082926;28;20048;-62
2022/06/11 05:04:47;;;;;;;7.63;2.92;;;;;;;13.32;79.97;97997.34;5078182;28;20049;-62
2022/06/11 05:07:13;;;;;;;6.57;2.88;;;;;;;13.46;79.64;98005.94;5066915;28;20040;-62
2022/06/11 05:09:40;;;;;;;4.78;2.20;;;;;;;13.60;78.39;98007.19;5067189;28;20040;-63
2022/06/11 05:12:07;;;;;;;6.30;2.50;;;;;;;13.80;77.98;98008.47;5069697;28;20439;-63
2022/06/11 05:14:34;;;;;;;9.07;2.80;;;;;;;14.01;76.61;98014.13;5087698;28;20059;-63
2022/06/11 05:17:01;;;;;;;5.00;2.28;;;;;;;14.15;75.99;98009.88;5073442;28;20133;-62
2022/06/11 05:19:27;;;;;;;6.45;3.05;;;;;;;14.30;75.47;98006.44;5078166;28;20037;-62
2022/06/11 05:21:54;;;;;;;7.63;2.78;;;;;;;14.38;76.06;98007.88;5066454;28;20048;-62
2022/06/11 05:24:21;;;;;;;7.50;3.42;;;;;;;14.50;75.48;98015.88;5066554;28;20473;-62
2022/06/11 05:26:55;;;;;;;5.13;2.63;;;;;;;14.59;75.13;98012.66;5075621;28;20051;-60
2022/06/11 05:29:34;;;;;;;5.03;2.38;;;;;;;14.67;75.29;98015.69;5066383;28;20708;-64
2022/06/11 05:32:01;;;;;;;7.35;2.67;;;;;;;14.77;75.24;98011.41;5067145;28;20044;-52
2022/06/11 05:34:29;;;;;;;3.72;2.53;;;;;;;14.89;74.21;98011.22;5066043;28;20051;-57
2022/06/11 05:36:57;;;;;;;6.38;2.88;;;;;;;14.99;74.23;98019.44;5075133;28;20473;-57
2022/06/11 05:39:24;;;;;;;5.07;2.38;;;;;;;15.13;73.92;98021.69;5072412;28;20411;-57
2022/06/11 05:41:51;;;;;;;5.00;2.47;;;;;;;15.26;72.53;98014.94;5065835;28;20335;-57
2022/06/11 05:44:17;;;;;;;6.88;2.85;;;;;;;15.41;73.08;98022.34;5065829;28;20052;-56
2022/06/11 05:46:44;;;;;;;5.35;2.35;;;;;;;15.46;72.99;98017.75;5070036;28;20047;-57
2022/06/11 05:49:18;;;;;;;3.28;2.00;;;;;;;15.54;72.89;98015.56;5066580;28;20113;-56
2022/06/11 05:51:49;;;;;;;4.13;2.08;;;;;;;15.68;71.69;98016.72;5078731;28;20044;-57
2022/06/11 05:54:18;;;;;;;;;;;;;;;15.89;71.19;98022.22;5065083;28;20051;-56
2022/06/11 05:56:46;;;;;;;5.57;2.45;;;;;;;16.00;71.02;98014.88;5074179;28;19935;-55
2022/06/11 05:59:17;;;;;;;4.47;1.90;;;;;;;16.25;69.88;98013.22;5083776;28;20048;-58
2022/06/11 06:01:44;;;;;;;;;;;;;;;16.48;68.90;98017.31;5066288;28;20049;-57
2022/06/11 06:04:11;;;;;;;8.07;1.98;;;;;;;16.59;68.40;98017.31;5075284;28;19920;-57
2022/06/11 06:06:37;;;;;;;9.35;1.83;;;;;;;16.59;68.70;98020.84;5067436;28;20230;-57
2022/06/11 06:09:05;;;;;;;3.10;1.67;;;;;;;16.59;68.99;98020.84;5067888;28;20044;-56
2022/06/11 06:11:32;;;;;;;4.20;2.15;;;;;;;16.70;69.36;98018.91;5067836;28;20039;-57
2022/06/11 06:13:59;;;;;;;3.42;1.92;;;;;;;16.86;68.46;98029.84;5067583;28;20044;-57
2022/06/11 06:16:29;;;;;;;3.13;1.90;;;;;;;16.96;68.67;98027.09;5067128;28;20290;-57
2022/06/11 06:18:58;;;;;;;5.70;1.73;;;;;;;17.03;68.51;98030.31;5067613;28;20044;-57
2022/06/11 06:21:29;;;;;;;5.88;2.78;;;;;;;17.11;66.78;98030.91;5066924;28;20279;-58
2022/06/11 06:23:56;;;;;;;5.57;1.70;;;;;;;17.19;66.29;98027.59;5067272;28;20060;-56
2022/06/11 06:26:23;;;;;;;4.63;1.75;;;;;;;17.33;64.42;98029.72;5065904;28;20086;-57
2022/06/11 06:28:50;;;;;;;5.20;1.63;;;;;;;17.47;64.64;98036.22;5067837;28;20041;-57
2022/06/11 06:31:17;;;;;;;5.03;1.60;;;;;;;17.51;64.24;98037.28;5067524;28;20056;-56
2022/06/11 06:33:45;;;;;;;4.68;2.03;;;;;;;17.53;62.79;98035.09;5067110;28;20086;-57
2022/06/11 06:36:14;;;;;;;5.25;1.90;;;;;;;17.60;59.86;98036.69;5067158;28;20032;-57
2022/06/11 06:38:42;;;;;;;4.47;1.63;;;;;;;17.81;59.52;98034.69;5066683;28;20432;-54
2022/06/11 06:41:09;;;;;;;4.88;1.60;;;;;;;17.97;61.79;98032.66;5067028;28;20051;-57
2022/06/11 06:43:37;;;;;;;3.13;1.42;;;;;;;18.06;59.54;98038.34;5065227;28;20509;-54
2022/06/11 06:46:04;;;;;;;5.32;1.48;;;;;;;18.11;59.26;98041.09;5064660;28;20064;-57
2022/06/11 06:48:31;;;;;;;4.43;1.25;;;;;;;18.26;57.69;98036.56;5065230;28;20068;-56
2022/06/11 06:50:58;;;;;;;3.85;1.55;;;;;;;18.33;58.02;98048.84;5078145;28;20442;-54
2022/06/11 06:53:26;;;;;;;6.70;1.55;;;;;;;18.38;56.97;98048.00;5066219;28;20052;-58
2022/06/11 06:55:53;;;;;;;3.78;1.30;;;;;;;18.52;56.08;98039.94;5067445;28;20040;-58
2022/06/11 06:58:20;;;;;;;3.45;1.70;;;;;;;18.65;56.07;98045.84;5075158;28;20044;-58
2022/06/11 07:00:46;;;;;;;4.18;1.40;;;;;;;18.76;56.07;98044.63;5078828;28;20516;-58
2022/06/11 07:03:14;;;;;;;2.78;1.27;;;;;;;18.79;56.43;98046.78;5074510;28;20449;-57
2022/06/11 07:05:42;;;;;;;4.63;1.40;;;;;;;18.81;56.79;98050.09;5080781;28;20526;-57
2022/06/11 07:08:10;;;;;;;5.53;2.05;;;;;;;18.87;56.85;98055.50;5072027;28;20049;-56
2022/06/11 07:10:40;;;;;;;5.00;1.70;;;;;;;18.94;56.04;98045.81;5064319;28;20056;-58
2022/06/11 07:13:07;;;;;;;4.25;1.50;;;;;;;18.99;54.60;98044.97;5064175;28;20048;-58
2022/06/11 07:15:35;;;;;;;4.10;1.60;;;;;;;19.00;55.50;98037.53;5082332;28;20052;-57
2022/06/11 07:18:08;;;;;;;4.65;1.60;;;;;;;19.03;56.12;98040.53;5084915;28;20281;-58
2022/06/11 07:20:36;;;;;;;3.70;1.65;;;;;;;19.07;56.80;98038.03;5064785;28;20507;-57
2022/06/11 07:23:12;;;;;;;4.85;1.55;;;;;;;19.13;54.73;98041.53;5064462;28;20044;-57
2022/06/11 07:25:41;;;;;;;5.28;1.60;;;;;;;19.08;55.21;98042.41;5058188;28;20039;-54
2022/06/11 07:28:15;;;;;;;6.95;1.83;;;;;;;19.22;54.46;98037.03;5064417;28;20568;-57
2022/06/11 07:30:44;;;;;;;3.40;1.30;;;;;;;19.20;55.17;98029.09;5059642;28;20044;-56
2022/06/11 07:33:15;;;;;;;3.67;1.50;;;;;;;19.41;54.26;98031.59;5057494;28;20466;-57
2022/06/11 07:35:42;;;;;;;5.32;1.70;;;;;;;19.60;53.50;98030.78;5064191;28;20048;-52
2022/06/11 07:38:12;;;;;;;2.38;1.10;;;;;;;19.67;52.96;98036.75;5077336;28;20130;-58
2022/06/11 07:40:40;;;;;;;5.78;1.50;;;;;;;19.71;52.36;98035.03;5065080;28;20360;-58
2022/06/11 07:43:08;;;;;;;2.35;1.40;;;;;;;19.78;52.53;98036.63;5067256;28;20568;-58
2022/06/11 07:45:41;;;;;;;5.95;1.63;;;;;;;19.75;51.50;98032.50;5066138;28;20075;-58
2022/06/11 07:48:09;;;;;;;5.65;1.38;;;;;;;19.80;52.69;98040.72;5067505;28;20106;-58
2022/06/11 07:50:39;;;;;;;3.05;1.30;;;;;;;20.04;49.60;98036.28;5063842;28;20331;-59
2022/06/11 07:53:14;;;;;;;3.80;1.55;;;;;;;20.10;50.06;98038.66;5063411;28;20490;-58
2022/06/11 07:55:44;;;;;;;5.82;2.08;;;;;;;20.13;48.55;98040.78;5063354;28;20059;-58
2022/06/11 07:58:13;;;;;;;3.20;1.33;;;;;;;20.11;49.17;98037.53;5063971;28;20048;-58
2022/06/11 08:00:43;;;;;;;3.25;1.60;;;;;;;20.10;51.33;98052.38;5063450;28;20055;-53
2022/06/11 08:03:10;;;;;;;4.68;1.60;;;;;;;20.11;50.14;98053.19;5062177;28;20098;-66
2022/06/11 08:05:37;;;;;;;4.07;1.25;;;;;;;20.17;50.93;98040.19;5062056;28;20052;-66
2022/06/11 08:08:07;;;;;;;3.40;1.30;;;;;;;20.36;49.90;98043.75;5077385;28;20474;-66
2022/06/11 08:10:36;;;;;;;4.28;1.50;;;;;;;20.19;50.67;98043.47;5079609;28;20067;-65
2022/06/11 08:13:04;;;;;;;3.17;1.70;;;;;;;20.22;51.19;98034.59;5067678;28;20040;-66
2022/06/11 08:15:30;;;;;;;2.88;1.50;;;;;;;20.35;50.49;98038.53;5068043;28;20634;-66
2022/06/11 08:17:57;;;;;;;3.50;1.48;;;;;;;20.39;49.50;98029.34;5067470;28;20055;-65
2022/06/11 08:20:28;;;;;;;4.25;1.50;;;;;;;20.43;49.21;98029.59;5066309;28;20048;-67
2022/06/11 08:22:54;;;;;;;5.53;1.30;;;;;;;20.46;50.44;98039.19;5067641;28;20040;-66
2022/06/11 08:25:22;;;;;;;4.05;1.33;;;;;;;20.46;50.17;98042.75;5066256;28;20086;-66
2022/06/11 08:27:49;;;;;;;3.67;1.42;;;;;;;20.57;51.76;98043.41;5069624;28;20438;-66
2022/06/11 08:30:19;;;;;;;4.13;1.52;;;;;;;20.75;50.06;98049.94;5070369;28;20040;-66
2022/06/11 08:32:46;;;;;;;4.28;1.70;;;;;;;20.91;51.29;98046.94;5070185;28;20128;-67
2022/06/11 08:35:15;;;;;;;4.43;1.40;;;;;;;20.92;50.16;98046.66;5069245;28;20068;-66
2022/06/11 08:37:41;;;;;;;4.38;1.60;;;;;;;20.95;50.80;98047.97;5069534;28;20047;-66
2022/06/11 08:40:19;;;;;;;4.85;1.50;;;;;;;21.25;49.80;98053.19;5070255;28;20055;-66
2022/06/11 08:42:55;;;;;;;4.50;1.50;;;;;;;21.38;50.73;98046.03;5069320;28;20496;-66
2022/06/11 08:45:26;;;;;;;6.25;1.77;;;;;;;21.48;48.10;98054.09;5075460;28;20166;-66
2022/06/11 08:47:59;;;;;;;7.78;1.70;;;;;;;21.55;47.27;98048.97;5069148;28;20539;-66
2022/06/11 08:50:40;;;;;;;4.97;1.90;;;;;;;21.52;47.33;98051.56;5067873;28;20051;-66
2022/06/11 08:53:07;;;;;;;4.38;1.50;;;;;;;21.18;49.16;98054.41;5055104;28;20040;-66
2022/06/11 08:55:37;;;;;;;3.38;1.55;;;;;;;20.98;49.14;98049.28;5063259;28;20128;-66
2022/06/11 08:58:18;;;;;;;3.55;1.27;;;;;;;20.98;49.31;98046.53;5067724;28;20045;-67
2022/06/11 09:00:51;;;;;;;;;;;;;;;20.97;48.24;98044.91;5068198;28;20036;-66
2022/06/11 09:03:27;;;;;;;5.68;1.90;;;;;;;20.98;48.92;98047.38;5067664;28;19936;-66
2022/06/11 09:06:29;;;;;;;5.80;1.90;;;;;;;21.10;49.19;98046.84;5066564;28;20045;-66
2022/06/11 09:09:05;;;;;;;4.20;1.67;;;;;;;21.17;49.93;98043.69;5067115;28;20473;-66
2022/06/11 09:12:15;;;;;;;3.40;1.50;;;;;;;21.17;48.99;98040.94;5067025;28;20059;-66
2022/06/11 09:15:07;;;;;;;4.30;1.83;;;;;;;21.04;50.58;98035.13;5058671;28;20089;-66
2022/06/11 09:17:49;;;;;;;5.30;1.60;;;;;;;21.08;49.54;98035.31;5055688;28;20067;-66
2022/06/11 09:20:50;;;;;;;6.82;2.40;;;;;;;21.26;48.06;98027.28;5067244;28;20427;-66
2022/06/11 09:23:28;;;;;;;4.25;1.95;;;;;;;21.39;46.83;98020.94;5066788;28;20048;-66
2022/06/11 09:26:04;;;;;;;4.53;1.40;;;;;;;21.64;47.57;98021.50;5066703;28;20075;-66
2022/06/11 09:28:44;;;;;;;3.83;1.52;;;;;;;21.82;45.86;98029.97;5066633;28;20048;-66
2022/06/11 09:31:25;;;;;;;4.90;1.73;;;;;;;21.79;43.72;98025.91;5067003;28;20055;-66
2022/06/11 09:34:19;;;;;;;3.47;1.45;;;;;;;21.61;44.53;98030.41;5055484;28;20053;-66
2022/06/11 09:37:04;;;;;;;3.75;1.30;;;;;;;21.71;45.20;98029.38;5066593;28;20531;-66
2022/06/11 09:40:04;;;;;;;5.85;1.50;;;;;;;21.82;45.13;98029.97;5066336;28;20049;-66
2022/06/11 09:42:43;;;;;;;5.63;1.35;;;;;;;22.03;44.18;98027.56;5066691;28;20445;-66
2022/06/11 09:45:43;;;;;;;3.85;1.70;;;;;;;22.26;43.99;98030.31;5060108;28;20292;-66
2022/06/11 09:48:22;;;;;;;4.57;1.98;;;;;;;22.45;43.88;98035.63;5067051;28;20045;-66
2022/06/11 09:51:03;;;;;;;5.38;1.92;;;;;;;22.65;42.89;98039.06;5066808;28;20573;-66
2022/06/11 09:53:49;;;;;;;4.45;1.35;;;;;;;22.92;42.28;98036.44;5061420;28;20086;-66
2022/06/11 09:56:16;;;;;;;4.68;1.70;;;;;;;23.21;42.64;98027.59;5068759;28;20115;-66
2022/06/11 09:59:21;;;;;;;6.22;1.80;;;;;;;22.86;41.97;98024.72;5065881;28;20041;-66
2022/06/11 10:01:54;;;;;;;3.38;1.42;;;;;;;23.02;41.38;98018.75;5065563;28;20125;-66
2022/06/11 10:04:31;;;;;;;4.15;1.40;;;;;;;23.20;42.06;98028.75;5053102;28;20052;-66
2022/06/11 10:07:05;;;;;;;6.30;2.42;;;;;;;23.35;40.52;98026.69;5065385;28;20444;-66
2022/06/11 10:09:52;;;;;;;4.38;1.60;;;;;;;23.41;40.74;98028.19;5066230;28;20051;-66
2022/06/11 10:12:33;;;;;;;4.78;1.55;;;;;;;23.40;40.46;98028.50;5065765;28;20507;-67
2022/06/11 10:15:06;;;;;;;5.22;1.60;;;;;;;23.48;41.43;98027.72;5065989;28;20052;-67
2022/06/11 10:17:35;;;;;;;3.85;1.58;;;;;;;23.62;41.17;98028.38;5065578;28;20098;-66
2022/06/11 10:20:25;;;;;;;2.55;1.40;;;;;;;23.47;41.81;98031.59;5065932;28;20051;-66
2022/06/11 10:23:13;;;;;;;4.95;1.58;;;;;;;23.67;41.72;98032.97;5060827;28;20095;-66
2022/06/11 10:25:59;;;;;;;4.35;1.48;;;;;;;23.90;41.08;98035.56;5065687;28;20415;-66
2022/06/11 10:28:33;;;;;;;4.47;1.92;;;;;;;23.90;39.87;98038.34;5066029;28;20178;-66
2022/06/11 10:31:06;;;;;;;5.30;1.67;;;;;;;23.86;39.39;98035.41;5065735;28;20049;-66
2022/06/11 10:33:42;;;;;;;5.95;1.50;;;;;;;23.72;40.58;98032.78;5065883;28;20477;-66
2022/06/11 10:36:16;;;;;;;4.03;1.33;;;;;;;23.63;40.14;98037.50;5064663;28;20051;-66
2022/06/11 10:39:02;;;;;;;5.97;1.60;;;;;;;23.62;40.89;98030.34;5065667;28;20048;-66
2022/06/11 10:41:41;;;;;;;4.00;1.80;;;;;;;23.72;40.27;98037.50;5065267;28;20561;-67
2022/06/11 10:44:24;;;;;;;5.10;1.70;;;;;;;23.62;41.06;98033.13;5065861;28;20044;-66
2022/06/11 10:46:52;;;;;;;5.45;1.50;;;;;;;23.74;39.95;98030.50;5051925;28;20048;-67
2022/06/11 10:49:22;;;;;;;5.70;1.50;;;;;;;23.55;40.64;98027.25;5065432;28;20044;-66
2022/06/11 10:52:03;;;;;;;3.72;1.50;;;;;;;23.66;39.88;98023.00;5065221;28;20049;-67
2022/06/11 10:54:29;;;;;;;5.30;1.67;;;;;;;23.65;40.14;98024.16;5059485;28;20052;-66
2022/06/11 10:57:13;;;;;;;8.77;1.83;;;;;;;23.22;41.66;98022.91;5065012;28;20617;-66
2022/06/11 10:59:47;;;;;;;4.30;1.65;;;;;;;23.22;41.54;98012.66;5065371;28;20052;-67
2022/06/11 11:02:45;;;;;;;4.30;1.80;;;;;;;23.17;41.58;98014.75;5065551;28;20052;-67
2022/06/11 11:05:15;;;;;;;4.28;1.58;;;;;;;23.09;41.82;98013.59;5065828;28;20040;-66
2022/06/11 11:07:43;;;;;;;5.18;2.00;;;;;;;23.12;41.70;98012.97;5064853;28;20090;-66
2022/06/11 11:10:35;;;;;;;8.75;1.92;;;;;;;23.33;41.31;98015.94;5064615;28;20048;-66
2022/06/11 11:13:25;;;;;;;3.55;1.65;;;;;;;23.45;40.74;98020.88;5065564;28;20053;-66
2022/06/11 11:16:01;;;;;;;4.25;1.83;;;;;;;23.67;41.29;98010.84;5064282;28;20063;-66
2022/06/11 11:18:40;;;;;;;5.57;1.70;;;;;;;23.74;40.34;98008.38;5065022;28;20284;-66
2022/06/11 11:21:16;;;;;;;4.28;1.63;;;;;;;23.99;39.84;98007.94;5064741;28;20052;-66
2022/06/11 11:23:44;;;;;;;9.82;2.45;;;;;;;24.11;39.96;97996.22;5065157;28;20102;-66
2022/06/11 11:26:18;;;;;;;5.35;1.67;;;;;;;24.16;39.90;98002.41;5063459;28;20051;-66
2022/06/11 11:28:54;;;;;;;4.53;1.60;;;;;;;24.31;39.24;97996.69;5064346;28;20297;-66
2022/06/11 11:31:26;;;;;;;5.93;1.67;;;;;;;24.44;39.84;97990.16;5064837;28;20557;-67
2022/06/11 11:34:00;;;;;;;5.25;1.40;;;;;;;24.66;39.22;97994.66;5051671;28;20044;-66
2022/06/11 11:36:29;;;;;;;3.15;1.52;;;;;;;24.77;38.33;98000.63;5064380;28;20056;-66
2022/06/11 11:39:17;;;;;;;3.90;1.60;;;;;;;24.66;38.74;97991.88;5059327;28;20371;-66
2022/06/11 11:42:10;;;;;;;3.80;1.52;;;;;;;24.97;39.25;97978.09;5068302;28;20461;-66
2022/06/11 11:44:50;;;;;;;4.15;2.05;;;;;;;25.40;38.56;97982.63;5062686;28;20464;-66
2022/06/11 11:47:21;;;;;;;5.75;1.90;;;;;;;25.52;39.08;97978.28;5066549;28;20037;-66
2022/06/11 11:49:56;;;;;;;5.28;2.05;;;;;;;25.52;38.07;97981.06;5066884;28;20056;-66
2022/06/11 11:52:26;;;;;;;5.47;1.70;;;;;;;25.65;38.05;97971.69;5064531;28;20076;-66
2022/06/11 11:55:11;;;;;;;5.18;1.77;;;;;;;25.66;36.93;97972.50;5067613;28;20454;-66
2022/06/11 11:57:38;;;;;;;3.55;1.60;;;;;;;25.91;36.26;97976.22;5060588;28;20128;-66
2022/06/11 12:00:24;;;;;;;5.65;1.55;;;;;;;25.93;37.03;97971.16;5064314;28;20470;-66
2022/06/11 12:02:56;;;;;;;6.05;1.77;;;;;;;25.39;37.19;97969.88;5064279;28;20048;-66
2022/06/11 12:05:31;;;;;;;3.45;1.52;;;;;;;25.91;37.46;97964.31;5064961;28;20045;-67
2022/06/11 12:07:59;;;;;;;7.30;2.50;;;;;;;26.27;36.73;97964.84;5063880;28;20048;-66